Nagyleta, Hungary
Current Conditions -  °F | °C
As of 7:15 AM on Sunday 21 Dec 2014 (Local Time) from LHDC Reporting Station
Clear Clear  
Wind Chill: 31°   Ceiling: Unl
Heat Index: 37°   Visibility: 6mi
Dew Point: 32°   Wind: 9mph
Humidity: 81%   Direction: 260°W
Pressure: 30.03"   Gusts: NA
Location:  47.38°N, 21.9°E
Report Text: LHDC 210515Z 26008KT CAVOK 03/M00 Q1017
Loading
Personal Weather Stations






























Interactive Weather Map New forecast layout! Learn more

10-Day Weather Forecast

Advertisements
Track Severe Weather on mobile